Time,TemperatureF,DewpointF,PressureIn,WindDirection,WindDirectionDegrees,WindSpeedMPH,WindSpeedGustMPH,Humidity,HourlyPrecipIn,Conditions,Clouds,dailyrainin,SoftwareType,DateUTC
2013-01-27 00:05:00,11.8,7.4,30.21,NW,306,0.0,0.0,82,0.00,,,0.00,Wunderground v.1.15,2013-01-27 06:05:00,
2013-01-27 00:11:00,11.5,7.1,30.20,NW,321,0.0,0.0,82,0.00,,,0.00,Wunderground v.1.15,2013-01-27 06:11:00,
2013-01-27 00:16:00,11.6,7.4,30.20,SE,125,0.0,0.0,83,0.00,,,0.00,Wunderground v.1.15,2013-01-27 06:16:00,
2013-01-27 00:22:00,11.5,7.3,30.20,SE,125,0.0,0.0,83,0.00,,,0.00,Wunderground v.1.15,2013-01-27 06:22:00,
2013-01-27 00:28:00,11.3,7.1,30.19,SE,125,0.0,0.0,83,0.00,,,0.00,Wunderground v.1.15,2013-01-27 06:28:00,
2013-01-27 00:33:00,11.2,7.3,30.19,SE,125,0.0,0.0,84,0.00,,,0.00,Wunderground v.1.15,2013-01-27 06:33:00,
2013-01-27 00:39:00,11.3,7.7,30.19,SE,125,0.0,0.0,85,0.00,,,0.00,Wunderground v.1.15,2013-01-27 06:39:00,
2013-01-27 00:45:00,11.2,7.3,30.19,SE,125,0.0,0.0,84,0.00,,,0.00,Wunderground v.1.15,2013-01-27 06:45:00,
2013-01-27 00:50:00,11.1,7.2,30.20,SE,125,0.0,0.0,84,0.00,,,0.00,Wunderground v.1.15,2013-01-27 06:50:00,
2013-01-27 00:56:00,11.1,7.2,30.19,SE,125,0.0,0.0,84,0.00,,,0.00,Wunderground v.1.15,2013-01-27 06:56:00,
2013-01-27 01:02:00,10.8,6.9,30.19,SE,125,0.0,0.0,84,0.00,,,0.00,Wunderground v.1.15,2013-01-27 07:02:00,
2013-01-27 01:08:00,10.9,7.3,30.19,SE,125,0.0,0.0,85,0.00,,,0.00,Wunderground v.1.15,2013-01-27 07:08:00,
2013-01-27 01:13:00,11.1,7.5,30.19,SE,125,0.0,0.0,85,0.00,,,0.00,Wunderground v.1.15,2013-01-27 07:13:00,
2013-01-27 01:19:00,11.3,7.7,30.19,SE,125,0.0,0.0,85,0.00,,,0.00,Wunderground v.1.15,2013-01-27 07:19:00,
2013-01-27 01:24:00,11.5,7.9,30.19,SE,125,0.0,0.0,85,0.00,,,0.00,Wunderground v.1.15,2013-01-27 07:24:00,
2013-01-27 01:30:00,11.5,7.9,30.19,SE,125,0.0,0.0,85,0.00,,,0.00,Wunderground v.1.15,2013-01-27 07:30:00,
2013-01-27 01:36:00,11.3,7.7,30.19,SE,125,0.0,0.0,85,0.00,,,0.00,Wunderground v.1.15,2013-01-27 07:36:00,
2013-01-27 01:41:00,11.6,8.0,30.18,ENE,72,0.0,0.0,85,0.00,,,0.00,Wunderground v.1.15,2013-01-27 07:41:00,
2013-01-27 01:47:00,11.6,8.0,30.18,ENE,72,0.0,0.0,85,0.00,,,0.00,Wunderground v.1.15,2013-01-27 07:47:00,
2013-01-27 01:53:00,11.4,7.8,30.18,ENE,71,0.0,0.0,85,0.00,,,0.00,Wunderground v.1.15,2013-01-27 07:53:00,
2013-01-27 01:58:00,11.1,7.5,30.18,ENE,72,0.0,0.0,85,0.00,,,0.00,Wunderground v.1.15,2013-01-27 07:58:00,
2013-01-27 02:04:00,11.3,7.9,30.17,ENE,71,0.0,0.0,86,0.00,,,0.00,Wunderground v.1.15,2013-01-27 08:04:00,
2013-01-27 02:10:00,11.2,7.8,30.17,ENE,72,0.0,0.0,86,0.00,,,0.00,Wunderground v.1.15,2013-01-27 08:10:00,
2013-01-27 02:15:00,11.5,8.4,30.17,NNE,33,0.0,0.0,87,0.00,,,0.00,Wunderground v.1.15,2013-01-27 08:15:00,
2013-01-27 02:21:00,11.8,8.4,30.17,North,353,0.0,0.0,86,0.00,,,0.00,Wunderground v.1.15,2013-01-27 08:21:00,
2013-01-27 02:27:00,11.8,8.4,30.17,North,353,0.0,0.0,86,0.00,,,0.00,Wunderground v.1.15,2013-01-27 08:27:00,
2013-01-27 02:32:00,11.5,7.9,30.17,North,353,0.0,0.0,85,0.00,,,0.00,Wunderground v.1.15,2013-01-27 08:32:00,
2013-01-27 02:38:00,11.2,7.8,30.17,North,353,0.0,0.0,86,0.00,,,0.00,Wunderground v.1.15,2013-01-27 08:38:00,
2013-01-27 02:43:00,11.0,7.6,30.16,North,353,0.0,0.0,86,0.00,,,0.00,Wunderground v.1.15,2013-01-27 08:43:00,
2013-01-27 02:49:00,10.7,7.6,30.16,North,353,0.0,0.0,87,0.00,,,0.00,Wunderground v.1.15,2013-01-27 08:49:00,
2013-01-27 02:55:00,10.6,7.7,30.16,North,353,0.0,0.0,88,0.00,,,0.00,Wunderground v.1.15,2013-01-27 08:55:00,
2013-01-27 03:00:00,10.5,7.6,30.16,North,353,0.0,0.0,88,0.00,,,0.00,Wunderground v.1.15,2013-01-27 09:00:00,
2013-01-27 03:06:00,10.4,7.6,30.16,North,353,0.0,0.0,88,0.00,,,0.00,Wunderground v.1.15,2013-01-27 09:06:00,
2013-01-27 03:12:00,10.2,7.4,30.16,North,353,0.0,0.0,88,0.00,,,0.00,Wunderground v.1.15,2013-01-27 09:12:00,
2013-01-27 03:17:00,10.0,7.4,30.16,North,354,0.0,0.0,89,0.00,,,0.00,Wunderground v.1.15,2013-01-27 09:17:00,
2013-01-27 03:23:00,9.9,7.3,30.15,North,353,0.0,0.0,89,0.00,,,0.00,Wunderground v.1.15,2013-01-27 09:23:00,
2013-01-27 03:29:00,9.7,7.1,30.15,North,353,0.0,0.0,89,0.00,,,0.00,Wunderground v.1.15,2013-01-27 09:29:00,
2013-01-27 03:34:00,9.6,7.0,30.15,North,353,0.0,0.0,89,0.00,,,0.00,Wunderground v.1.15,2013-01-27 09:34:00,
2013-01-27 03:40:00,9.5,7.2,30.14,North,353,0.0,0.0,90,0.00,,,0.00,Wunderground v.1.15,2013-01-27 09:40:00,
2013-01-27 03:45:00,9.6,7.3,30.14,North,353,0.0,0.0,90,0.00,,,0.00,Wunderground v.1.15,2013-01-27 09:45:00,
2013-01-27 03:51:00,9.5,7.2,30.14,North,353,0.0,0.0,90,0.00,,,0.00,Wunderground v.1.15,2013-01-27 09:51:00,
2013-01-27 03:57:00,9.5,7.2,30.14,North,353,0.0,0.0,90,0.00,,,0.00,Wunderground v.1.15,2013-01-27 09:57:00,
2013-01-27 04:03:00,9.4,7.1,30.13,North,353,0.0,0.0,90,0.00,,,0.00,Wunderground v.1.15,2013-01-27 10:03:00,
2013-01-27 04:08:00,9.4,7.1,30.13,North,353,0.0,0.0,90,0.00,,,0.00,Wunderground v.1.15,2013-01-27 10:08:00,
2013-01-27 04:14:00,9.2,6.9,30.13,North,353,0.0,0.0,90,0.00,,,0.00,Wunderground v.1.15,2013-01-27 10:14:00,
2013-01-27 04:19:00,9.1,6.8,30.12,North,353,0.0,0.0,90,0.00,,,0.00,Wunderground v.1.15,2013-01-27 10:19:00,
2013-01-27 04:25:00,9.2,6.9,30.12,North,353,0.0,0.0,90,0.00,,,0.00,Wunderground v.1.15,2013-01-27 10:25:00,
2013-01-27 04:31:00,9.1,6.8,30.11,North,353,0.0,0.0,90,0.00,,,0.00,Wunderground v.1.15,2013-01-27 10:31:00,
2013-01-27 04:36:00,8.9,6.6,30.11,North,353,0.0,0.0,90,0.00,,,0.00,Wunderground v.1.15,2013-01-27 10:36:00,
2013-01-27 04:42:00,8.7,6.4,30.11,North,353,0.0,0.0,90,0.00,,,0.00,Wunderground v.1.15,2013-01-27 10:42:00,
2013-01-27 04:48:00,8.6,6.3,30.11,North,353,0.0,0.0,90,0.00,,,0.00,Wunderground v.1.15,2013-01-27 10:48:00,
2013-01-27 04:53:00,8.7,6.6,30.11,North,353,0.0,0.0,91,0.00,,,0.00,Wunderground v.1.15,2013-01-27 10:53:00,
2013-01-27 04:59:00,8.9,6.8,30.11,North,353,0.0,0.0,91,0.00,,,0.00,Wunderground v.1.15,2013-01-27 10:59:00,
2013-01-27 05:05:00,9.5,7.6,30.10,NE,46,0.0,0.0,92,0.00,,,0.00,Wunderground v.1.15,2013-01-27 11:05:00,
2013-01-27 05:10:00,9.6,7.3,30.10,NE,47,0.0,0.0,90,0.00,,,0.00,Wunderground v.1.15,2013-01-27 11:10:00,
2013-01-27 05:16:00,9.6,7.3,30.10,NE,47,0.0,0.0,90,0.00,,,0.00,Wunderground v.1.15,2013-01-27 11:16:00,
2013-01-27 05:22:00,9.7,7.6,30.10,NE,47,0.0,0.0,91,0.00,,,0.00,Wunderground v.1.15,2013-01-27 11:22:00,
2013-01-27 05:27:00,9.8,7.5,30.10,NE,47,0.0,0.0,90,0.00,,,0.00,Wunderground v.1.15,2013-01-27 11:27:00,
2013-01-27 05:33:00,9.9,7.6,30.09,NE,36,0.0,0.0,90,0.00,,,0.00,Wunderground v.1.15,2013-01-27 11:33:00,
2013-01-27 05:38:00,9.9,7.8,30.10,NE,37,0.0,0.0,91,0.00,,,0.00,Wunderground v.1.15,2013-01-27 11:38:00,
2013-01-27 05:44:00,10.0,7.9,30.09,NE,37,0.0,0.0,91,0.00,,,0.00,Wunderground v.1.15,2013-01-27 11:44:00,
2013-01-27 05:50:00,10.1,8.0,30.09,NE,36,0.0,0.0,91,0.00,,,0.00,Wunderground v.1.15,2013-01-27 11:50:00,
2013-01-27 05:55:00,10.2,8.1,30.09,NE,36,0.0,0.0,91,0.00,,,0.00,Wunderground v.1.15,2013-01-27 11:55:00,
2013-01-27 06:00:00,10.2,8.1,30.09,NE,37,0.0,0.0,91,0.00,,,0.00,Wunderground v.1.15,2013-01-27 12:00:00,
2013-01-27 06:06:00,10.2,8.1,30.09,NE,37,0.0,0.0,91,0.00,,,0.00,Wunderground v.1.15,2013-01-27 12:06:00,
2013-01-27 06:11:00,10.2,8.1,30.09,NE,37,0.0,0.0,91,0.00,,,0.00,Wunderground v.1.15,2013-01-27 12:11:00,
2013-01-27 06:17:00,10.2,8.1,30.09,NE,37,0.0,0.0,91,0.00,,,0.00,Wunderground v.1.15,2013-01-27 12:17:00,
2013-01-27 06:23:00,10.2,8.1,30.09,NE,37,0.0,0.0,91,0.00,,,0.00,Wunderground v.1.15,2013-01-27 12:23:00,
2013-01-27 06:28:00,10.3,8.2,30.09,NE,37,0.0,0.0,91,0.00,,,0.00,Wunderground v.1.15,2013-01-27 12:28:00,
2013-01-27 06:33:00,10.3,8.2,30.09,NE,36,0.0,0.0,91,0.00,,,0.00,Wunderground v.1.15,2013-01-27 12:33:00,
2013-01-27 06:38:00,10.4,8.3,30.09,North,2,0.0,0.0,91,0.00,,,0.00,Wunderground v.1.15,2013-01-27 12:38:00,
2013-01-27 06:43:00,10.5,8.4,30.09,North,2,0.0,0.0,91,0.00,,,0.00,Wunderground v.1.15,2013-01-27 12:43:00,
2013-01-27 06:49:00,10.6,8.5,30.09,North,2,0.0,0.0,91,0.00,,,0.00,Wunderground v.1.15,2013-01-27 12:49:00,
2013-01-27 06:55:00,10.7,8.6,30.09,North,2,0.0,0.0,91,0.00,,,0.00,Wunderground v.1.15,2013-01-27 12:55:00,
2013-01-27 07:00:00,10.9,8.8,30.09,North,2,0.0,0.0,91,0.00,,,0.00,Wunderground v.1.15,2013-01-27 13:00:00,
2013-01-27 07:06:00,11.0,8.9,30.09,North,2,0.0,0.0,91,0.00,,,0.00,Wunderground v.1.15,2013-01-27 13:06:00,
2013-01-27 07:11:00,11.1,9.0,30.09,North,2,0.0,0.0,91,0.00,,,0.00,Wunderground v.1.15,2013-01-27 13:11:00,
2013-01-27 07:17:00,11.4,9.3,30.08,North,2,0.0,0.0,91,0.00,,,0.00,Wunderground v.1.15,2013-01-27 13:17:00,
2013-01-27 07:23:00,11.8,9.7,30.08,North,2,0.0,0.0,91,0.00,,,0.00,Wunderground v.1.15,2013-01-27 13:23:00,
2013-01-27 07:29:00,12.1,10.0,30.08,North,2,0.0,0.0,91,0.00,,,0.00,Wunderground v.1.15,2013-01-27 13:29:00,
2013-01-27 07:35:00,12.3,9.9,30.08,North,2,0.0,0.0,90,0.00,,,0.00,Wunderground v.1.15,2013-01-27 13:35:00,
2013-01-27 07:40:00,12.3,9.9,30.08,North,2,0.0,0.0,90,0.00,,,0.00,Wunderground v.1.15,2013-01-27 13:40:00,
2013-01-27 07:46:00,12.4,10.0,30.08,North,2,0.0,0.0,90,0.00,,,0.00,Wunderground v.1.15,2013-01-27 13:46:00,
2013-01-27 07:52:00,12.4,10.0,30.08,North,2,0.0,0.0,90,0.00,,,0.00,Wunderground v.1.15,2013-01-27 13:52:00,
2013-01-27 07:58:00,12.6,10.2,30.08,North,2,0.0,0.0,90,0.00,,,0.00,Wunderground v.1.15,2013-01-27 13:58:00,
2013-01-27 08:03:00,12.6,10.2,30.08,North,2,0.0,0.0,90,0.00,,,0.00,Wunderground v.1.15,2013-01-27 14:03:00,
2013-01-27 08:09:00,12.5,10.1,30.08,North,2,0.0,0.0,90,0.00,,,0.00,Wunderground v.1.15,2013-01-27 14:09:00,
2013-01-27 08:15:00,12.6,10.2,30.07,North,2,0.0,0.0,90,0.00,,,0.00,Wunderground v.1.15,2013-01-27 14:15:00,
2013-01-27 08:21:00,12.7,10.1,30.08,North,2,0.0,0.0,89,0.00,,,0.00,Wunderground v.1.15,2013-01-27 14:21:00,
2013-01-27 08:26:00,12.7,10.1,30.08,North,2,0.0,0.0,89,0.00,,,0.00,Wunderground v.1.15,2013-01-27 14:26:00,
2013-01-27 08:32:00,12.9,10.5,30.08,North,2,0.0,0.0,90,0.00,,,0.00,Wunderground v.1.15,2013-01-27 14:32:00,
2013-01-27 08:38:00,13.2,10.6,30.08,North,2,0.0,0.0,89,0.00,,,0.00,Wunderground v.1.15,2013-01-27 14:38:00,
2013-01-27 08:43:00,13.4,10.8,30.07,North,2,0.0,0.0,89,0.00,,,0.00,Wunderground v.1.15,2013-01-27 14:43:00,
2013-01-27 08:49:00,13.8,11.2,30.07,NW,322,0.0,0.0,89,0.00,,,0.00,Wunderground v.1.15,2013-01-27 14:49:00,
2013-01-27 08:55:00,14.3,11.7,30.07,NW,322,0.0,0.0,89,0.00,,,0.00,Wunderground v.1.15,2013-01-27 14:55:00,
2013-01-27 09:00:00,14.8,12.1,30.07,NW,322,0.0,0.0,89,0.00,,,0.00,Wunderground v.1.15,2013-01-27 15:00:00,
2013-01-27 09:06:00,15.4,12.7,30.07,NW,322,0.0,0.0,89,0.00,,,0.00,Wunderground v.1.15,2013-01-27 15:06:00,
2013-01-27 09:11:00,16.4,13.2,30.07,NW,310,0.0,0.0,87,0.00,,,0.00,Wunderground v.1.15,2013-01-27 15:11:00,
2013-01-27 09:17:00,17.2,13.7,30.06,NW,310,0.0,0.0,86,0.00,,,0.00,Wunderground v.1.15,2013-01-27 15:17:00,
2013-01-27 09:23:00,17.9,14.2,30.06,NW,310,0.0,0.0,85,0.00,,,0.00,Wunderground v.1.15,2013-01-27 15:23:00,
2013-01-27 09:29:00,18.8,14.8,30.06,SW,214,0.0,0.0,84,0.00,,,0.00,Wunderground v.1.15,2013-01-27 15:29:00,
2013-01-27 09:35:00,19.7,15.1,30.05,SW,214,0.0,0.0,82,0.00,,,0.00,Wunderground v.1.15,2013-01-27 15:35:00,
2013-01-27 09:40:00,20.5,15.6,30.05,WSW,255,0.0,0.0,81,0.00,,,0.00,Wunderground v.1.15,2013-01-27 15:40:00,
2013-01-27 09:46:00,21.3,16.1,30.05,South,178,0.0,0.0,80,0.00,,,0.00,Wunderground v.1.15,2013-01-27 15:46:00,
2013-01-27 09:52:00,22.1,16.3,30.05,SSW,207,0.0,1.0,78,0.00,,,0.00,Wunderground v.1.15,2013-01-27 15:52:00,
2013-01-27 09:58:00,22.8,16.7,30.05,South,177,0.0,1.0,77,0.00,,,0.00,Wunderground v.1.15,2013-01-27 15:58:00,
2013-01-27 10:04:00,23.4,16.6,30.05,WSW,246,0.0,1.0,75,0.00,,,0.00,Wunderground v.1.15,2013-01-27 16:04:00,
2013-01-27 10:10:00,23.9,16.8,30.05,WSW,253,0.0,0.0,74,0.00,,,0.00,Wunderground v.1.15,2013-01-27 16:10:00,
2013-01-27 10:15:00,24.5,17.7,30.05,WSW,249,0.0,0.0,75,0.00,,,0.00,Wunderground v.1.15,2013-01-27 16:15:00,
2013-01-27 10:21:00,25.3,17.9,30.04,SSW,204,0.0,3.0,73,0.00,,,0.00,Wunderground v.1.15,2013-01-27 16:21:00,
2013-01-27 10:27:00,25.9,18.1,30.04,SW,218,0.0,3.0,72,0.00,,,0.00,Wunderground v.1.15,2013-01-27 16:27:00,
2013-01-27 10:32:00,26.5,18.4,30.04,SSW,212,0.0,1.0,71,0.00,,,0.00,Wunderground v.1.15,2013-01-27 16:32:00,
2013-01-27 10:38:00,27.0,18.5,30.04,SE,142,0.0,1.0,70,0.00,,,0.00,Wunderground v.1.15,2013-01-27 16:38:00,
2013-01-27 10:44:00,27.1,17.9,30.04,East,95,1.0,3.0,68,0.00,,,0.00,Wunderground v.1.15,2013-01-27 16:44:00,
2013-01-27 10:50:00,27.2,18.4,30.04,WSW,246,1.0,1.0,69,0.00,,,0.00,Wunderground v.1.15,2013-01-27 16:50:00,
2013-01-27 10:55:00,27.7,18.5,30.04,SSE,160,0.0,2.0,68,0.00,,,0.00,Wunderground v.1.15,2013-01-27 16:55:00,
2013-01-27 11:00:00,27.7,18.5,30.04,South,189,1.0,1.0,68,0.00,,,0.00,Wunderground v.1.15,2013-01-27 17:00:00,
2013-01-27 11:06:00,27.9,18.7,30.04,WSW,242,1.0,2.0,68,0.00,,,0.00,Wunderground v.1.15,2013-01-27 17:06:00,
2013-01-27 11:12:00,28.5,18.9,30.04,SSW,211,0.0,3.0,67,0.00,,,0.00,Wunderground v.1.15,2013-01-27 17:12:00,
2013-01-27 11:18:00,28.9,19.0,30.03,SSW,213,1.0,3.0,66,0.00,,,0.00,Wunderground v.1.15,2013-01-27 17:18:00,
2013-01-27 11:23:00,29.1,19.5,30.03,West,280,1.0,1.0,67,0.00,,,0.00,Wunderground v.1.15,2013-01-27 17:23:00,
2013-01-27 11:29:00,29.5,19.5,30.03,WSW,250,0.0,2.0,66,0.00,,,0.00,Wunderground v.1.15,2013-01-27 17:29:00,
2013-01-27 11:35:00,29.8,19.5,30.03,SSW,211,1.0,5.0,65,0.00,,,0.00,Wunderground v.1.15,2013-01-27 17:35:00,
2013-01-27 11:40:00,29.7,19.4,30.02,West,271,1.0,1.0,65,0.00,,,0.00,Wunderground v.1.15,2013-01-27 17:40:00,
2013-01-27 11:46:00,30.0,19.7,30.02,SW,218,1.0,2.0,65,0.00,,,0.00,Wunderground v.1.15,2013-01-27 17:46:00,
2013-01-27 11:52:00,30.0,19.7,30.02,SSE,161,0.0,1.0,65,0.00,,,0.00,Wunderground v.1.15,2013-01-27 17:52:00,
2013-01-27 11:58:00,30.0,19.7,30.02,SSW,195,1.0,3.0,65,0.00,,,0.00,Wunderground v.1.15,2013-01-27 17:58:00,
2013-01-27 12:04:00,30.1,19.7,30.01,SW,232,2.0,4.0,65,0.00,,,0.00,Wunderground v.1.15,2013-01-27 18:04:00,
2013-01-27 12:10:00,30.1,19.7,30.01,WSW,245,2.0,2.0,65,0.00,,,0.00,Wunderground v.1.15,2013-01-27 18:10:00,
2013-01-27 12:16:00,30.4,20.0,30.01,SSW,209,1.0,4.0,65,0.00,,,0.00,Wunderground v.1.15,2013-01-27 18:16:00,
2013-01-27 12:21:00,30.4,20.0,30.01,SSW,204,1.0,1.0,65,0.00,,,0.00,Wunderground v.1.15,2013-01-27 18:21:00,
2013-01-27 12:27:00,30.5,20.1,30.00,WSW,238,1.0,5.0,65,0.00,,,0.00,Wunderground v.1.15,2013-01-27 18:27:00,
2013-01-27 12:33:00,30.5,20.1,30.00,SSW,207,1.0,3.0,65,0.00,,,0.00,Wunderground v.1.15,2013-01-27 18:33:00,
2013-01-27 12:38:00,30.6,20.2,30.00,SSE,163,1.0,4.0,65,0.00,,,0.00,Wunderground v.1.15,2013-01-27 18:38:00,
2013-01-27 12:44:00,30.6,20.6,30.00,SSW,207,1.0,2.0,66,0.00,,,0.00,Wunderground v.1.15,2013-01-27 18:44:00,
2013-01-27 12:50:00,30.6,20.6,30.00,WSW,251,1.0,1.0,66,0.00,,,0.00,Wunderground v.1.15,2013-01-27 18:50:00,
2013-01-27 12:55:00,30.5,20.5,29.99,West,263,1.0,5.0,66,0.00,,,0.00,Wunderground v.1.15,2013-01-27 18:55:00,
2013-01-27 13:00:00,30.6,20.6,29.99,SW,227,1.0,1.0,66,0.00,,,0.00,Wunderground v.1.15,2013-01-27 19:00:00,
2013-01-27 13:06:00,30.7,20.7,29.99,SW,232,1.0,2.0,66,0.00,,,0.00,Wunderground v.1.15,2013-01-27 19:06:00,
2013-01-27 13:11:00,30.8,20.8,29.99,WNW,298,1.0,1.0,66,0.00,,,0.00,Wunderground v.1.15,2013-01-27 19:11:00,
2013-01-27 13:17:00,30.8,20.8,29.99,West,279,1.0,2.0,66,0.00,,,0.00,Wunderground v.1.15,2013-01-27 19:17:00,
2013-01-27 13:23:00,30.9,20.9,29.99,SSE,158,1.0,1.0,66,0.00,,,0.00,Wunderground v.1.15,2013-01-27 19:23:00,
2013-01-27 13:29:00,30.9,21.2,29.99,SSE,153,1.0,1.0,67,0.00,,,0.00,Wunderground v.1.15,2013-01-27 19:29:00,
2013-01-27 13:35:00,31.1,21.4,29.98,SW,223,0.0,2.0,67,0.00,,,0.00,Wunderground v.1.15,2013-01-27 19:35:00,
2013-01-27 13:41:00,31.2,21.5,29.98,South,184,0.0,1.0,67,0.00,,,0.00,Wunderground v.1.15,2013-01-27 19:41:00,
2013-01-27 13:47:00,31.3,21.6,29.98,ESE,104,0.0,2.0,67,0.00,,,0.00,Wunderground v.1.15,2013-01-27 19:47:00,
2013-01-27 13:52:00,31.3,21.6,29.98,West,272,1.0,1.0,67,0.00,,,0.00,Wunderground v.1.15,2013-01-27 19:52:00,
2013-01-27 13:58:00,31.5,21.8,29.98,West,262,1.0,3.0,67,0.00,,,0.00,Wunderground v.1.15,2013-01-27 19:58:00,
2013-01-27 14:04:00,31.6,21.9,29.97,SE,130,1.0,3.0,67,0.00,,,0.00,Wunderground v.1.15,2013-01-27 20:04:00,
2013-01-27 14:09:00,31.6,21.9,29.97,SW,228,1.0,3.0,67,0.00,,,0.00,Wunderground v.1.15,2013-01-27 20:09:00,
2013-01-27 14:15:00,31.9,22.2,29.97,SSE,167,1.0,2.0,67,0.00,,,0.00,Wunderground v.1.15,2013-01-27 20:15:00,
2013-01-27 14:21:00,31.7,22.0,29.96,SSE,161,1.0,1.0,67,0.00,,,0.00,Wunderground v.1.15,2013-01-27 20:21:00,
2013-01-27 14:27:00,31.8,22.4,29.96,SSE,148,0.0,3.0,68,0.00,,,0.00,Wunderground v.1.15,2013-01-27 20:27:00,
2013-01-27 14:32:00,31.9,23.2,29.96,SE,128,0.0,1.0,70,0.00,,,0.00,Wunderground v.1.15,2013-01-27 20:32:00,
2013-01-27 14:38:00,32.0,23.3,29.96,West,261,1.0,2.0,70,0.00,,,0.00,Wunderground v.1.15,2013-01-27 20:38:00,
2013-01-27 14:44:00,32.0,23.0,29.95,SSW,194,0.0,2.0,69,0.00,,,0.00,Wunderground v.1.15,2013-01-27 20:44:00,
2013-01-27 14:50:00,32.0,23.0,29.95,East,80,0.0,0.0,69,0.00,,,0.00,Wunderground v.1.15,2013-01-27 20:50:00,
2013-01-27 14:56:00,32.0,23.3,29.95,SSE,163,0.0,1.0,70,0.00,,,0.00,Wunderground v.1.15,2013-01-27 20:56:00,
2013-01-27 15:02:00,31.9,23.2,29.95,South,180,0.0,1.0,70,0.00,,,0.00,Wunderground v.1.15,2013-01-27 21:02:00,
2013-01-27 15:07:00,31.9,23.2,29.95,SE,137,0.0,1.0,70,0.00,,,0.00,Wunderground v.1.15,2013-01-27 21:07:00,
2013-01-27 15:13:00,31.8,23.1,29.95,SSW,206,0.0,1.0,70,0.00,,,0.00,Wunderground v.1.15,2013-01-27 21:13:00,
2013-01-27 15:18:00,31.8,23.1,29.95,SE,129,1.0,2.0,70,0.00,,,0.00,Wunderground v.1.15,2013-01-27 21:18:00,
2013-01-27 15:24:00,31.7,23.0,29.95,SSE,151,1.0,1.0,70,0.00,,,0.00,Wunderground v.1.15,2013-01-27 21:24:00,
2013-01-27 15:30:00,31.5,22.8,29.95,NNE,18,1.0,1.0,70,0.00,,,0.00,Wunderground v.1.15,2013-01-27 21:30:00,
2013-01-27 15:36:00,31.3,22.6,29.95,North,1,1.0,3.0,70,0.00,,,0.00,Wunderground v.1.15,2013-01-27 21:36:00,
2013-01-27 15:42:00,31.2,22.5,29.95,ENE,76,0.0,1.0,70,0.00,,,0.00,Wunderground v.1.15,2013-01-27 21:42:00,
2013-01-27 15:48:00,30.8,22.2,29.95,NE,35,1.0,2.0,70,0.00,,,0.00,Wunderground v.1.15,2013-01-27 21:48:00,
2013-01-27 15:54:00,30.6,22.3,29.95,South,182,1.0,2.0,71,0.00,,,0.00,Wunderground v.1.15,2013-01-27 21:54:00,
2013-01-27 15:59:00,30.5,22.2,29.95,SSE,168,1.0,2.0,71,0.00,,,0.00,Wunderground v.1.15,2013-01-27 21:59:00,
2013-01-27 16:05:00,30.4,22.4,29.95,SSE,151,1.0,2.0,72,0.00,,,0.00,Wunderground v.1.15,2013-01-27 22:05:00,
2013-01-27 16:11:00,30.3,22.4,29.95,ENE,64,1.0,3.0,72,0.00,,,0.00,Wunderground v.1.15,2013-01-27 22:11:00,
2013-01-27 16:16:00,30.2,22.3,29.95,SSE,149,1.0,3.0,72,0.00,,,0.00,Wunderground v.1.15,2013-01-27 22:16:00,
2013-01-27 16:22:00,30.1,22.5,29.95,ESE,103,1.0,3.0,73,0.00,,,0.00,Wunderground v.1.15,2013-01-27 22:22:00,
2013-01-27 16:28:00,30.0,22.4,29.94,SSW,194,1.0,3.0,73,0.00,,,0.00,Wunderground v.1.15,2013-01-27 22:28:00,
2013-01-27 16:34:00,30.0,22.4,29.94,South,190,1.0,1.0,73,0.00,,,0.00,Wunderground v.1.15,2013-01-27 22:34:00,
2013-01-27 16:40:00,29.9,22.3,29.94,ESE,123,2.0,2.0,73,0.00,,,0.00,Wunderground v.1.15,2013-01-27 22:40:00,
2013-01-27 16:46:00,29.9,22.3,29.94,SSE,164,1.0,2.0,73,0.00,,,0.00,Wunderground v.1.15,2013-01-27 22:46:00,
2013-01-27 16:51:00,29.8,22.5,29.94,WSW,243,0.0,1.0,74,0.00,,,0.00,Wunderground v.1.15,2013-01-27 22:51:00,
2013-01-27 16:57:00,29.8,22.5,29.94,SW,233,1.0,2.0,74,0.00,,,0.00,Wunderground v.1.15,2013-01-27 22:57:00,
2013-01-27 17:03:00,29.8,22.5,29.94,ESE,118,0.0,1.0,74,0.00,,,0.00,Wunderground v.1.15,2013-01-27 23:03:00,
2013-01-27 17:09:00,29.8,22.5,29.94,SSW,201,0.0,1.0,74,0.00,,,0.00,Wunderground v.1.15,2013-01-27 23:09:00,
2013-01-27 17:14:00,29.7,22.7,29.94,East,86,0.0,1.0,75,0.00,,,0.00,Wunderground v.1.15,2013-01-27 23:14:00,
2013-01-27 17:20:00,29.7,22.7,29.94,East,80,0.0,1.0,75,0.00,,,0.00,Wunderground v.1.15,2013-01-27 23:20:00,
2013-01-27 17:25:00,29.6,23.0,29.94,NW,320,0.0,1.0,76,0.00,,,0.00,Wunderground v.1.15,2013-01-27 23:25:00,
2013-01-27 17:31:00,29.6,23.0,29.94,NW,317,0.0,1.0,76,0.00,,,0.00,Wunderground v.1.15,2013-01-27 23:31:00,
2013-01-27 17:37:00,29.5,22.9,29.93,NW,317,0.0,1.0,76,0.00,,,0.00,Wunderground v.1.15,2013-01-27 23:37:00,
2013-01-27 17:43:00,29.6,23.0,29.93,NW,317,0.0,1.0,76,0.00,,,0.00,Wunderground v.1.15,2013-01-27 23:43:00,
2013-01-27 17:48:00,29.6,23.3,29.93,NNE,20,0.0,1.0,77,0.00,,,0.00,Wunderground v.1.15,2013-01-27 23:48:00,
2013-01-27 17:54:00,29.5,23.2,29.93,NNE,20,0.0,1.0,77,0.00,,,0.00,Wunderground v.1.15,2013-01-27 23:54:00,
2013-01-27 18:00:00,29.5,23.2,29.93,North,353,0.0,0.0,77,0.00,,,0.00,Wunderground v.1.15,2013-01-28 00:00:00,
2013-01-27 18:06:00,29.4,23.4,29.93,West,263,0.0,0.0,78,0.00,,,0.00,Wunderground v.1.15,2013-01-28 00:06:00,
2013-01-27 18:11:00,29.5,23.5,29.93,ESE,112,0.0,0.0,78,0.00,,,0.00,Wunderground v.1.15,2013-01-28 00:11:00,
2013-01-27 18:17:00,29.5,23.5,29.93,WSW,258,0.0,0.0,78,0.00,,,0.00,Wunderground v.1.15,2013-01-28 00:17:00,
2013-01-27 18:23:00,29.5,23.8,29.93,SE,139,0.0,1.0,79,0.00,,,0.00,Wunderground v.1.15,2013-01-28 00:23:00,
2013-01-27 18:28:00,29.6,23.9,29.93,SE,138,0.0,2.0,79,0.00,,,0.00,Wunderground v.1.15,2013-01-28 00:28:00,
2013-01-27 18:34:00,29.7,24.0,29.93,ESE,104,0.0,1.0,79,0.00,,,0.00,Wunderground v.1.15,2013-01-28 00:34:00,
2013-01-27 18:39:00,29.8,24.4,29.93,WSW,250,0.0,1.0,80,0.00,,,0.00,Wunderground v.1.15,2013-01-28 00:39:00,
2013-01-27 18:45:00,29.8,24.4,29.93,WNW,290,0.0,0.0,80,0.00,,,0.00,Wunderground v.1.15,2013-01-28 00:45:00,
2013-01-27 18:51:00,29.8,24.7,29.93,SW,235,0.0,0.0,81,0.00,,,0.00,Wunderground v.1.15,2013-01-28 00:51:00,
2013-01-27 18:57:00,29.7,24.6,29.92,SW,235,0.0,0.0,81,0.00,,,0.00,Wunderground v.1.15,2013-01-28 00:57:00,
2013-01-27 19:03:00,29.7,24.9,29.93,West,267,0.0,0.0,82,0.00,,,0.00,Wunderground v.1.15,2013-01-28 01:03:00,
2013-01-27 19:09:00,29.6,24.8,29.93,WNW,303,0.0,0.0,82,0.00,,,0.00,Wunderground v.1.15,2013-01-28 01:09:00,
2013-01-27 19:14:00,29.6,25.1,29.92,WNW,303,0.0,0.0,83,0.00,,,0.00,Wunderground v.1.15,2013-01-28 01:14:00,
2013-01-27 19:20:00,29.5,25.0,29.92,WNW,303,0.0,0.0,83,0.00,,,0.00,Wunderground v.1.15,2013-01-28 01:20:00,
2013-01-27 19:26:00,29.4,25.2,29.92,WNW,303,0.0,0.0,84,0.00,,,0.00,Wunderground v.1.15,2013-01-28 01:26:00,
2013-01-27 19:31:00,29.3,25.4,29.92,WNW,303,0.0,0.0,85,0.00,,,0.00,Wunderground v.1.15,2013-01-28 01:31:00,
2013-01-27 19:36:00,29.3,25.4,29.92,WNW,303,0.0,0.0,85,0.00,,,0.00,Wunderground v.1.15,2013-01-28 01:36:00,
2013-01-27 19:42:00,29.1,25.2,29.92,WNW,303,0.0,0.0,85,0.00,,,0.00,Wunderground v.1.15,2013-01-28 01:42:00,
2013-01-27 19:48:00,29.0,25.3,29.92,WNW,303,0.0,0.0,86,0.00,,,0.00,Wunderground v.1.15,2013-01-28 01:48:00,
2013-01-27 19:53:00,29.0,25.3,29.91,WNW,303,0.0,0.0,86,0.00,,,0.00,Wunderground v.1.15,2013-01-28 01:53:00,
2013-01-27 19:59:00,28.9,25.5,29.91,WNW,303,0.0,0.0,87,0.00,,,0.00,Wunderground v.1.15,2013-01-28 01:59:00,
2013-01-27 20:05:00,28.9,25.8,29.91,NW,304,0.0,0.0,88,0.00,,,0.00,Wunderground v.1.15,2013-01-28 02:05:00,
2013-01-27 20:11:00,28.9,26.1,29.91,NW,304,0.0,0.0,89,0.00,,,0.00,Wunderground v.1.15,2013-01-28 02:11:00,
2013-01-27 20:16:00,28.9,26.1,29.90,NW,313,0.0,0.0,89,0.00,,,0.00,Wunderground v.1.15,2013-01-28 02:16:00,
2013-01-27 20:22:00,28.9,26.3,29.90,North,350,0.0,0.0,90,0.00,,,0.00,Wunderground v.1.15,2013-01-28 02:22:00,
2013-01-27 20:27:00,29.0,26.4,29.90,NNE,17,0.0,0.0,90,0.00,,,0.00,Wunderground v.1.15,2013-01-28 02:27:00,
2013-01-27 20:33:00,29.0,26.7,29.90,NW,310,0.0,0.0,91,0.00,,,0.00,Wunderground v.1.15,2013-01-28 02:33:00,
2013-01-27 20:39:00,29.1,26.8,29.90,SW,235,0.0,0.0,91,0.00,,,0.00,Wunderground v.1.15,2013-01-28 02:39:00,
2013-01-27 20:45:00,29.2,27.2,29.90,WNW,286,0.0,0.0,92,0.00,,,0.00,Wunderground v.1.15,2013-01-28 02:45:00,
2013-01-27 20:50:00,29.2,27.2,29.90,WNW,286,0.0,0.0,92,0.00,,,0.00,Wunderground v.1.15,2013-01-28 02:50:00,
2013-01-27 20:56:00,29.2,27.2,29.89,WNW,286,0.0,0.0,92,0.00,,,0.00,Wunderground v.1.15,2013-01-28 02:56:00,
2013-01-27 21:02:00,29.2,27.2,29.89,WNW,286,0.0,0.0,92,0.00,,,0.00,Wunderground v.1.15,2013-01-28 03:02:00,
2013-01-27 21:07:00,29.2,27.4,29.90,WSW,256,0.0,0.0,93,0.00,,,0.00,Wunderground v.1.15,2013-01-28 03:07:00,
2013-01-27 21:13:00,29.2,27.4,29.89,WSW,256,0.0,0.0,93,0.00,,,0.00,Wunderground v.1.15,2013-01-28 03:13:00,
2013-01-27 21:19:00,29.2,27.4,29.89,WSW,256,0.0,0.0,93,0.00,,,0.00,Wunderground v.1.15,2013-01-28 03:19:00,
2013-01-27 21:25:00,29.1,27.3,29.89,WSW,257,0.0,0.0,93,0.00,,,0.00,Wunderground v.1.15,2013-01-28 03:25:00,
2013-01-27 21:31:00,29.1,27.3,29.89,WSW,257,0.0,0.0,93,0.00,,,0.00,Wunderground v.1.15,2013-01-28 03:31:00,
2013-01-27 21:36:00,29.1,27.6,29.89,WSW,257,0.0,0.0,94,0.00,,,0.00,Wunderground v.1.15,2013-01-28 03:36:00,
2013-01-27 21:42:00,29.0,27.5,29.90,WSW,257,0.0,0.0,94,0.00,,,0.00,Wunderground v.1.15,2013-01-28 03:42:00,
2013-01-27 21:48:00,29.0,27.5,29.89,WSW,256,0.0,0.0,94,0.00,,,0.00,Wunderground v.1.15,2013-01-28 03:48:00,
2013-01-27 21:54:00,29.0,27.5,29.89,WSW,256,0.0,0.0,94,0.00,,,0.00,Wunderground v.1.15,2013-01-28 03:54:00,
2013-01-27 22:00:00,28.9,27.4,29.89,WSW,257,0.0,0.0,94,0.00,,,0.00,Wunderground v.1.15,2013-01-28 04:00:00,
2013-01-27 22:06:00,28.9,27.4,29.89,WSW,257,0.0,0.0,94,0.00,,,0.00,Wunderground v.1.15,2013-01-28 04:06:00,
2013-01-27 22:12:00,28.9,27.4,29.89,WSW,257,0.0,0.0,94,0.00,,,0.00,Wunderground v.1.15,2013-01-28 04:12:00,
2013-01-27 22:18:00,28.9,27.4,29.89,WSW,257,0.0,0.0,94,0.00,,,0.00,Wunderground v.1.15,2013-01-28 04:18:00,
2013-01-27 22:24:00,28.9,27.4,29.89,WSW,256,0.0,0.0,94,0.00,,,0.00,Wunderground v.1.15,2013-01-28 04:24:00,
2013-01-27 22:30:00,28.9,27.4,29.89,WSW,256,0.0,0.0,94,0.00,,,0.00,Wunderground v.1.15,2013-01-28 04:30:00,
2013-01-27 22:35:00,29.0,27.7,29.89,SW,223,0.0,1.0,95,0.00,,,0.00,Wunderground v.1.15,2013-01-28 04:35:00,
2013-01-27 22:41:00,29.0,27.7,29.89,SW,233,0.0,0.0,95,0.00,,,0.00,Wunderground v.1.15,2013-01-28 04:41:00,
2013-01-27 22:46:00,29.1,27.8,29.89,SW,234,0.0,0.0,95,0.00,,,0.00,Wunderground v.1.15,2013-01-28 04:46:00,
2013-01-27 22:52:00,29.1,27.8,29.89,SW,235,0.0,0.0,95,0.00,,,0.00,Wunderground v.1.15,2013-01-28 04:52:00,
2013-01-27 22:58:00,29.2,27.9,29.90,West,268,0.0,0.0,95,0.00,,,0.00,Wunderground v.1.15,2013-01-28 04:58:00,
2013-01-27 23:00:00,29.2,27.9,29.90,West,268,0.0,0.0,95,0.00,,,0.00,Wunderground v.1.15,2013-01-28 05:00:00,
2013-01-27 23:02:00,29.2,27.9,29.90,West,268,0.0,0.0,95,0.00,,,0.00,Wunderground v.1.15,2013-01-28 05:02:00,
2013-01-27 23:05:00,29.2,27.9,29.89,West,268,0.0,0.0,95,0.00,,,0.00,Wunderground v.1.15,2013-01-28 05:05:00,
2013-01-27 23:07:00,29.2,27.9,29.89,West,268,0.0,0.0,95,0.00,,,0.00,Wunderground v.1.15,2013-01-28 05:07:00,
2013-01-27 23:12:00,29.2,27.9,29.89,NE,43,0.0,1.0,95,0.00,,,0.00,Wunderground v.1.15,2013-01-28 05:12:00,
2013-01-27 23:18:00,29.2,27.9,29.89,NE,41,0.0,1.0,95,0.00,,,0.00,Wunderground v.1.15,2013-01-28 05:18:00,
2013-01-27 23:24:00,29.2,27.9,29.89,NE,40,0.0,0.0,95,0.00,,,0.00,Wunderground v.1.15,2013-01-28 05:24:00,
2013-01-27 23:29:00,29.2,27.9,29.88,East,97,0.0,0.0,95,0.00,,,0.00,Wunderground v.1.15,2013-01-28 05:29:00,
2013-01-27 23:35:00,29.1,27.8,29.88,East,85,0.0,0.0,95,0.00,,,0.00,Wunderground v.1.15,2013-01-28 05:35:00,
2013-01-27 23:40:00,29.1,27.8,29.89,East,82,0.0,0.0,95,0.00,,,0.00,Wunderground v.1.15,2013-01-28 05:40:00,
2013-01-27 23:46:00,29.1,27.8,29.89,NNE,17,0.0,0.0,95,0.00,,,0.00,Wunderground v.1.15,2013-01-28 05:46:00,
2013-01-27 23:52:00,29.0,27.7,29.89,North,352,0.0,0.0,95,0.00,,,0.00,Wunderground v.1.15,2013-01-28 05:52:00,
2013-01-27 23:58:00,29.0,27.7,29.88,North,352,0.0,0.0,95,0.00,,,0.00,Wunderground v.1.15,2013-01-28 05:58:00,